sensor_id;sensor_type;location;lat;lon;timestamp;P1;durP1;ratioP1;P2;durP2;ratioP2
15899;SDS011;8048;50.644;6.184;2023-03-23T00:00:43;4.23;;;3.90;;
15899;SDS011;8048;50.644;6.184;2023-03-23T00:03:09;3.27;;;3.07;;
15899;SDS011;8048;50.644;6.184;2023-03-23T00:05:34;3.00;;;2.80;;
15899;SDS011;8048;50.644;6.184;2023-03-23T00:08:02;3.77;;;3.57;;
15899;SDS011;8048;50.644;6.184;2023-03-23T00:10:28;3.83;;;3.63;;
15899;SDS011;8048;50.644;6.184;2023-03-23T00:12:58;4.27;;;3.93;;
15899;SDS011;8048;50.644;6.184;2023-03-23T00:15:27;3.10;;;2.90;;
15899;SDS011;8048;50.644;6.184;2023-03-23T00:17:58;3.67;;;3.47;;
15899;SDS011;8048;50.644;6.184;2023-03-23T00:20:27;3.93;;;3.57;;
15899;SDS011;8048;50.644;6.184;2023-03-23T00:22:54;3.20;;;3.00;;
15899;SDS011;8048;50.644;6.184;2023-03-23T00:25:24;4.80;;;3.93;;
15899;SDS011;8048;50.644;6.184;2023-03-23T00:27:50;4.10;;;3.80;;
15899;SDS011;8048;50.644;6.184;2023-03-23T00:30:15;3.03;;;2.83;;
15899;SDS011;8048;50.644;6.184;2023-03-23T00:32:42;4.27;;;3.97;;
15899;SDS011;8048;50.644;6.184;2023-03-23T00:35:08;5.30;;;3.63;;
15899;SDS011;8048;50.644;6.184;2023-03-23T00:37:33;3.77;;;3.57;;
15899;SDS011;8048;50.644;6.184;2023-03-23T00:40:00;3.47;;;3.27;;
15899;SDS011;8048;50.644;6.184;2023-03-23T00:42:30;4.07;;;3.77;;
15899;SDS011;8048;50.644;6.184;2023-03-23T00:45:01;4.13;;;3.80;;
15899;SDS011;8048;50.644;6.184;2023-03-23T00:47:27;4.17;;;3.87;;
15899;SDS011;8048;50.644;6.184;2023-03-23T00:49:53;4.10;;;3.70;;
15899;SDS011;8048;50.644;6.184;2023-03-23T00:52:21;3.83;;;3.53;;
15899;SDS011;8048;50.644;6.184;2023-03-23T00:54:47;4.27;;;3.87;;
15899;SDS011;8048;50.644;6.184;2023-03-23T00:57:12;3.43;;;3.13;;
15899;SDS011;8048;50.644;6.184;2023-03-23T00:59:38;4.43;;;4.20;;
15899;SDS011;8048;50.644;6.184;2023-03-23T01:02:03;4.30;;;4.00;;
15899;SDS011;8048;50.644;6.184;2023-03-23T01:04:29;3.43;;;3.23;;
15899;SDS011;8048;50.644;6.184;2023-03-23T01:06:56;3.70;;;3.50;;
15899;SDS011;8048;50.644;6.184;2023-03-23T01:09:22;4.20;;;3.67;;
15899;SDS011;8048;50.644;6.184;2023-03-23T01:11:49;6.77;;;3.87;;
15899;SDS011;8048;50.644;6.184;2023-03-23T01:14:16;3.80;;;3.57;;
15899;SDS011;8048;50.644;6.184;2023-03-23T01:16:43;8.27;;;4.30;;
15899;SDS011;8048;50.644;6.184;2023-03-23T01:19:09;4.00;;;3.70;;
15899;SDS011;8048;50.644;6.184;2023-03-23T01:21:35;3.90;;;3.57;;
15899;SDS011;8048;50.644;6.184;2023-03-23T01:24:01;3.70;;;3.50;;
15899;SDS011;8048;50.644;6.184;2023-03-23T01:26:27;3.97;;;3.70;;
15899;SDS011;8048;50.644;6.184;2023-03-23T01:28:53;4.07;;;3.77;;
15899;SDS011;8048;50.644;6.184;2023-03-23T01:31:20;3.30;;;3.20;;
15899;SDS011;8048;50.644;6.184;2023-03-23T01:33:48;3.40;;;3.20;;
15899;SDS011;8048;50.644;6.184;2023-03-23T01:36:24;3.43;;;3.13;;
15899;SDS011;8048;50.644;6.184;2023-03-23T01:38:57;3.80;;;3.60;;
15899;SDS011;8048;50.644;6.184;2023-03-23T01:41:24;3.80;;;3.50;;
15899;SDS011;8048;50.644;6.184;2023-03-23T01:46:41;3.97;;;3.77;;
15899;SDS011;8048;50.644;6.184;2023-03-23T01:51:37;3.53;;;3.33;;
15899;SDS011;8048;50.644;6.184;2023-03-23T01:54:08;3.57;;;3.37;;
15899;SDS011;8048;50.644;6.184;2023-03-23T01:56:38;3.07;;;2.87;;
15899;SDS011;8048;50.644;6.184;2023-03-23T01:59:06;3.27;;;2.97;;
15899;SDS011;8048;50.644;6.184;2023-03-23T02:01:33;3.33;;;3.20;;
15899;SDS011;8048;50.644;6.184;2023-03-23T02:06:31;2.50;;;2.40;;
15899;SDS011;8048;50.644;6.184;2023-03-23T02:08:56;3.60;;;2.80;;
15899;SDS011;8048;50.644;6.184;2023-03-23T02:11:22;3.00;;;2.80;;
15899;SDS011;8048;50.644;6.184;2023-03-23T02:13:48;2.97;;;2.77;;
15899;SDS011;8048;50.644;6.184;2023-03-23T02:16:21;3.60;;;3.30;;
15899;SDS011;8048;50.644;6.184;2023-03-23T02:19:04;2.67;;;2.57;;
15899;SDS011;8048;50.644;6.184;2023-03-23T02:21:54;2.90;;;2.80;;
15899;SDS011;8048;50.644;6.184;2023-03-23T02:27:47;3.30;;;3.10;;
15899;SDS011;8048;50.644;6.184;2023-03-23T02:36:35;3.23;;;3.03;;
15899;SDS011;8048;50.644;6.184;2023-03-23T02:39:23;3.40;;;3.20;;
15899;SDS011;8048;50.644;6.184;2023-03-23T02:41:56;3.23;;;3.03;;
15899;SDS011;8048;50.644;6.184;2023-03-23T02:44:45;3.67;;;3.43;;
15899;SDS011;8048;50.644;6.184;2023-03-23T02:47:14;3.13;;;2.93;;
15899;SDS011;8048;50.644;6.184;2023-03-23T02:49:44;3.40;;;3.20;;
15899;SDS011;8048;50.644;6.184;2023-03-23T02:52:14;3.57;;;3.20;;
15899;SDS011;8048;50.644;6.184;2023-03-23T02:54:44;6.43;;;3.37;;
15899;SDS011;8048;50.644;6.184;2023-03-23T02:57:12;3.30;;;3.10;;
15899;SDS011;8048;50.644;6.184;2023-03-23T02:59:38;3.23;;;3.03;;
15899;SDS011;8048;50.644;6.184;2023-03-23T03:02:10;2.90;;;2.70;;
15899;SDS011;8048;50.644;6.184;2023-03-23T03:04:44;3.67;;;3.30;;
15899;SDS011;8048;50.644;6.184;2023-03-23T03:07:35;2.93;;;2.83;;
15899;SDS011;8048;50.644;6.184;2023-03-23T03:10:24;3.83;;;3.53;;
15899;SDS011;8048;50.644;6.184;2023-03-23T03:15:47;3.77;;;3.47;;
15899;SDS011;8048;50.644;6.184;2023-03-23T03:18:27;3.57;;;3.27;;
15899;SDS011;8048;50.644;6.184;2023-03-23T03:21:03;4.27;;;3.87;;
15899;SDS011;8048;50.644;6.184;2023-03-23T03:23:32;3.33;;;3.23;;
15899;SDS011;8048;50.644;6.184;2023-03-23T03:26:00;4.00;;;3.70;;
15899;SDS011;8048;50.644;6.184;2023-03-23T03:28:30;4.50;;;3.53;;
15899;SDS011;8048;50.644;6.184;2023-03-23T03:30:57;4.00;;;3.20;;
15899;SDS011;8048;50.644;6.184;2023-03-23T03:33:27;3.27;;;3.07;;
15899;SDS011;8048;50.644;6.184;2023-03-23T03:35:56;3.80;;;3.40;;
15899;SDS011;8048;50.644;6.184;2023-03-23T03:38:24;3.13;;;2.93;;
15899;SDS011;8048;50.644;6.184;2023-03-23T03:40:50;3.40;;;3.20;;
15899;SDS011;8048;50.644;6.184;2023-03-23T03:43:16;3.30;;;3.10;;
15899;SDS011;8048;50.644;6.184;2023-03-23T03:45:42;3.30;;;2.97;;
15899;SDS011;8048;50.644;6.184;2023-03-23T03:48:09;3.87;;;3.57;;
15899;SDS011;8048;50.644;6.184;2023-03-23T03:50:34;4.30;;;4.00;;
15899;SDS011;8048;50.644;6.184;2023-03-23T03:53:00;4.23;;;3.23;;
15899;SDS011;8048;50.644;6.184;2023-03-23T03:55:26;3.77;;;3.50;;
15899;SDS011;8048;50.644;6.184;2023-03-23T03:57:52;3.23;;;3.03;;
15899;SDS011;8048;50.644;6.184;2023-03-23T04:00:20;9.30;;;3.77;;
15899;SDS011;8048;50.644;6.184;2023-03-23T04:02:47;3.63;;;3.43;;
15899;SDS011;8048;50.644;6.184;2023-03-23T04:05:19;4.30;;;4.00;;
15899;SDS011;8048;50.644;6.184;2023-03-23T04:07:46;3.27;;;3.17;;
15899;SDS011;8048;50.644;6.184;2023-03-23T04:10:14;3.60;;;3.40;;
15899;SDS011;8048;50.644;6.184;2023-03-23T04:12:40;3.77;;;3.50;;
15899;SDS011;8048;50.644;6.184;2023-03-23T04:15:05;3.53;;;3.23;;
15899;SDS011;8048;50.644;6.184;2023-03-23T04:17:32;3.00;;;2.80;;
15899;SDS011;8048;50.644;6.184;2023-03-23T04:19:58;3.17;;;2.97;;
15899;SDS011;8048;50.644;6.184;2023-03-23T04:22:25;4.17;;;3.77;;
15899;SDS011;8048;50.644;6.184;2023-03-23T04:24:55;3.43;;;3.20;;
15899;SDS011;8048;50.644;6.184;2023-03-23T04:27:24;4.93;;;3.63;;
15899;SDS011;8048;50.644;6.184;2023-03-23T04:29:50;7.83;;;3.53;;
15899;SDS011;8048;50.644;6.184;2023-03-23T04:32:16;3.37;;;3.20;;
15899;SDS011;8048;50.644;6.184;2023-03-23T04:34:43;3.43;;;3.23;;
15899;SDS011;8048;50.644;6.184;2023-03-23T04:37:09;4.20;;;3.20;;
15899;SDS011;8048;50.644;6.184;2023-03-23T04:39:34;3.40;;;3.10;;
15899;SDS011;8048;50.644;6.184;2023-03-23T04:42:00;3.43;;;3.13;;
15899;SDS011;8048;50.644;6.184;2023-03-23T04:44:27;3.37;;;3.03;;
15899;SDS011;8048;50.644;6.184;2023-03-23T04:46:52;2.30;;;2.20;;
15899;SDS011;8048;50.644;6.184;2023-03-23T04:49:19;3.30;;;3.10;;
15899;SDS011;8048;50.644;6.184;2023-03-23T04:51:46;3.20;;;2.80;;
15899;SDS011;8048;50.644;6.184;2023-03-23T04:54:13;3.00;;;2.90;;
15899;SDS011;8048;50.644;6.184;2023-03-23T04:56:39;5.37;;;3.60;;
15899;SDS011;8048;50.644;6.184;2023-03-23T04:59:06;3.93;;;3.47;;
15899;SDS011;8048;50.644;6.184;2023-03-23T05:01:32;5.07;;;3.10;;
15899;SDS011;8048;50.644;6.184;2023-03-23T05:03:59;2.97;;;2.87;;
15899;SDS011;8048;50.644;6.184;2023-03-23T05:06:25;3.00;;;2.80;;
15899;SDS011;8048;50.644;6.184;2023-03-23T05:08:50;3.20;;;3.00;;
15899;SDS011;8048;50.644;6.184;2023-03-23T05:11:16;2.73;;;2.43;;
15899;SDS011;8048;50.644;6.184;2023-03-23T05:13:41;2.10;;;2.00;;
15899;SDS011;8048;50.644;6.184;2023-03-23T05:16:09;3.00;;;2.70;;
15899;SDS011;8048;50.644;6.184;2023-03-23T05:18:34;3.37;;;3.07;;
15899;SDS011;8048;50.644;6.184;2023-03-23T05:21:01;2.60;;;2.47;;
15899;SDS011;8048;50.644;6.184;2023-03-23T05:23:28;5.10;;;3.13;;
15899;SDS011;8048;50.644;6.184;2023-03-23T05:25:56;2.80;;;2.60;;
15899;SDS011;8048;50.644;6.184;2023-03-23T05:28:25;2.53;;;2.43;;
15899;SDS011;8048;50.644;6.184;2023-03-23T05:30:51;6.63;;;3.10;;
15899;SDS011;8048;50.644;6.184;2023-03-23T05:33:18;5.43;;;3.17;;
15899;SDS011;8048;50.644;6.184;2023-03-23T05:35:45;2.80;;;2.60;;
15899;SDS011;8048;50.644;6.184;2023-03-23T05:38:12;2.83;;;2.63;;
15899;SDS011;8048;50.644;6.184;2023-03-23T05:40:39;2.50;;;2.40;;
15899;SDS011;8048;50.644;6.184;2023-03-23T05:43:06;2.70;;;2.50;;
15899;SDS011;8048;50.644;6.184;2023-03-23T05:45:32;3.40;;;2.40;;
15899;SDS011;8048;50.644;6.184;2023-03-23T05:47:58;3.27;;;2.47;;
15899;SDS011;8048;50.644;6.184;2023-03-23T05:50:24;2.60;;;2.50;;
15899;SDS011;8048;50.644;6.184;2023-03-23T05:52:51;2.87;;;2.43;;
15899;SDS011;8048;50.644;6.184;2023-03-23T05:55:16;2.47;;;2.37;;
15899;SDS011;8048;50.644;6.184;2023-03-23T05:57:42;2.90;;;2.70;;
15899;SDS011;8048;50.644;6.184;2023-03-23T06:00:08;2.70;;;2.50;;
15899;SDS011;8048;50.644;6.184;2023-03-23T06:02:36;3.00;;;2.70;;
15899;SDS011;8048;50.644;6.184;2023-03-23T06:05:02;2.53;;;2.33;;
15899;SDS011;8048;50.644;6.184;2023-03-23T06:07:28;2.63;;;2.43;;
15899;SDS011;8048;50.644;6.184;2023-03-23T06:09:54;2.90;;;2.77;;
15899;SDS011;8048;50.644;6.184;2023-03-23T06:12:20;2.80;;;2.60;;
15899;SDS011;8048;50.644;6.184;2023-03-23T06:14:47;2.47;;;2.27;;
15899;SDS011;8048;50.644;6.184;2023-03-23T06:17:14;2.60;;;2.20;;
15899;SDS011;8048;50.644;6.184;2023-03-23T06:19:41;2.53;;;2.43;;
15899;SDS011;8048;50.644;6.184;2023-03-23T06:22:06;3.10;;;2.30;;
15899;SDS011;8048;50.644;6.184;2023-03-23T06:24:32;2.07;;;1.97;;
15899;SDS011;8048;50.644;6.184;2023-03-23T06:26:58;3.10;;;2.70;;
15899;SDS011;8048;50.644;6.184;2023-03-23T06:29:24;2.53;;;2.43;;
15899;SDS011;8048;50.644;6.184;2023-03-23T06:31:51;2.03;;;1.93;;
15899;SDS011;8048;50.644;6.184;2023-03-23T06:34:20;3.10;;;3.00;;
15899;SDS011;8048;50.644;6.184;2023-03-23T06:36:47;8.20;;;3.33;;
15899;SDS011;8048;50.644;6.184;2023-03-23T06:39:12;2.50;;;2.30;;
15899;SDS011;8048;50.644;6.184;2023-03-23T06:41:38;2.83;;;2.13;;
15899;SDS011;8048;50.644;6.184;2023-03-23T06:44:04;2.27;;;2.13;;
15899;SDS011;8048;50.644;6.184;2023-03-23T06:46:31;2.10;;;2.00;;
15899;SDS011;8048;50.644;6.184;2023-03-23T06:48:57;2.17;;;2.00;;
15899;SDS011;8048;50.644;6.184;2023-03-23T06:51:22;2.53;;;2.20;;
15899;SDS011;8048;50.644;6.184;2023-03-23T06:53:48;2.20;;;2.10;;
15899;SDS011;8048;50.644;6.184;2023-03-23T06:56:14;2.30;;;2.20;;
15899;SDS011;8048;50.644;6.184;2023-03-23T06:58:39;2.30;;;2.17;;
15899;SDS011;8048;50.644;6.184;2023-03-23T07:01:07;1.90;;;1.90;;
15899;SDS011;8048;50.644;6.184;2023-03-23T07:03:33;2.90;;;2.70;;
15899;SDS011;8048;50.644;6.184;2023-03-23T07:05:59;5.93;;;2.43;;
15899;SDS011;8048;50.644;6.184;2023-03-23T07:08:24;2.20;;;2.10;;
15899;SDS011;8048;50.644;6.184;2023-03-23T07:10:51;3.17;;;2.27;;
15899;SDS011;8048;50.644;6.184;2023-03-23T07:13:18;2.30;;;2.20;;
15899;SDS011;8048;50.644;6.184;2023-03-23T07:15:44;2.60;;;2.40;;
15899;SDS011;8048;50.644;6.184;2023-03-23T07:18:10;3.30;;;2.40;;
15899;SDS011;8048;50.644;6.184;2023-03-23T07:20:36;3.43;;;2.50;;
15899;SDS011;8048;50.644;6.184;2023-03-23T07:23:02;2.40;;;2.30;;
15899;SDS011;8048;50.644;6.184;2023-03-23T07:25:30;2.13;;;1.93;;
15899;SDS011;8048;50.644;6.184;2023-03-23T07:27:58;3.73;;;2.37;;
15899;SDS011;8048;50.644;6.184;2023-03-23T07:30:24;2.67;;;2.13;;
15899;SDS011;8048;50.644;6.184;2023-03-23T07:32:51;3.77;;;2.67;;
15899;SDS011;8048;50.644;6.184;2023-03-23T07:35:16;2.23;;;2.00;;
15899;SDS011;8048;50.644;6.184;2023-03-23T07:37:42;2.40;;;1.60;;
15899;SDS011;8048;50.644;6.184;2023-03-23T07:40:08;4.50;;;2.53;;
15899;SDS011;8048;50.644;6.184;2023-03-23T07:42:40;2.03;;;1.93;;
15899;SDS011;8048;50.644;6.184;2023-03-23T07:45:10;3.03;;;2.83;;
15899;SDS011;8048;50.644;6.184;2023-03-23T07:47:39;3.87;;;2.03;;
15899;SDS011;8048;50.644;6.184;2023-03-23T07:50:05;3.50;;;2.40;;
15899;SDS011;8048;50.644;6.184;2023-03-23T07:52:32;2.50;;;2.30;;
15899;SDS011;8048;50.644;6.184;2023-03-23T07:54:59;2.73;;;2.43;;
15899;SDS011;8048;50.644;6.184;2023-03-23T07:57:26;3.00;;;2.17;;
15899;SDS011;8048;50.644;6.184;2023-03-23T07:59:52;2.17;;;2.07;;
15899;SDS011;8048;50.644;6.184;2023-03-23T08:02:17;2.73;;;2.57;;
15899;SDS011;8048;50.644;6.184;2023-03-23T08:04:43;2.40;;;2.30;;
15899;SDS011;8048;50.644;6.184;2023-03-23T08:07:09;2.03;;;1.93;;
15899;SDS011;8048;50.644;6.184;2023-03-23T08:09:37;2.53;;;2.33;;
15899;SDS011;8048;50.644;6.184;2023-03-23T08:12:03;2.60;;;2.40;;
15899;SDS011;8048;50.644;6.184;2023-03-23T08:14:29;2.70;;;2.57;;
15899;SDS011;8048;50.644;6.184;2023-03-23T08:16:55;4.53;;;2.77;;
15899;SDS011;8048;50.644;6.184;2023-03-23T08:19:22;3.30;;;2.03;;
15899;SDS011;8048;50.644;6.184;2023-03-23T08:21:47;2.50;;;2.30;;
15899;SDS011;8048;50.644;6.184;2023-03-23T08:24:14;2.20;;;2.10;;
15899;SDS011;8048;50.644;6.184;2023-03-23T08:26:39;2.67;;;2.47;;
15899;SDS011;8048;50.644;6.184;2023-03-23T08:29:05;2.13;;;2.03;;
15899;SDS011;8048;50.644;6.184;2023-03-23T08:31:31;2.30;;;2.20;;
15899;SDS011;8048;50.644;6.184;2023-03-23T08:33:59;2.27;;;2.17;;
15899;SDS011;8048;50.644;6.184;2023-03-23T08:36:25;1.70;;;1.57;;
15899;SDS011;8048;50.644;6.184;2023-03-23T08:38:52;2.10;;;1.90;;
15899;SDS011;8048;50.644;6.184;2023-03-23T08:41:18;6.20;;;2.47;;
15899;SDS011;8048;50.644;6.184;2023-03-23T08:43:44;2.60;;;2.17;;
15899;SDS011;8048;50.644;6.184;2023-03-23T08:46:09;2.30;;;2.20;;
15899;SDS011;8048;50.644;6.184;2023-03-23T08:48:36;1.87;;;1.77;;
15899;SDS011;8048;50.644;6.184;2023-03-23T08:51:04;2.20;;;2.00;;
15899;SDS011;8048;50.644;6.184;2023-03-23T08:53:30;2.60;;;2.40;;
15899;SDS011;8048;50.644;6.184;2023-03-23T08:55:56;2.63;;;2.23;;
15899;SDS011;8048;50.644;6.184;2023-03-23T08:58:27;2.20;;;2.10;;
15899;SDS011;8048;50.644;6.184;2023-03-23T09:00:54;2.57;;;2.37;;
15899;SDS011;8048;50.644;6.184;2023-03-23T09:03:19;2.33;;;2.23;;
15899;SDS011;8048;50.644;6.184;2023-03-23T09:05:45;2.03;;;1.93;;
15899;SDS011;8048;50.644;6.184;2023-03-23T09:08:11;2.63;;;2.37;;
15899;SDS011;8048;50.644;6.184;2023-03-23T09:10:38;3.03;;;2.80;;
15899;SDS011;8048;50.644;6.184;2023-03-23T09:13:04;2.50;;;2.23;;
15899;SDS011;8048;50.644;6.184;2023-03-23T09:15:29;4.67;;;2.27;;
15899;SDS011;8048;50.644;6.184;2023-03-23T09:17:56;2.50;;;2.10;;
15899;SDS011;8048;50.644;6.184;2023-03-23T09:20:26;1.77;;;1.70;;
15899;SDS011;8048;50.644;6.184;2023-03-23T09:22:53;3.63;;;1.87;;
15899;SDS011;8048;50.644;6.184;2023-03-23T09:25:21;2.60;;;2.40;;
15899;SDS011;8048;50.644;6.184;2023-03-23T09:27:50;3.00;;;1.93;;
15899;SDS011;8048;50.644;6.184;2023-03-23T09:30:18;1.70;;;1.60;;
15899;SDS011;8048;50.644;6.184;2023-03-23T09:32:45;2.00;;;1.90;;
15899;SDS011;8048;50.644;6.184;2023-03-23T09:35:12;2.50;;;2.10;;
15899;SDS011;8048;50.644;6.184;2023-03-23T09:37:39;2.00;;;1.90;;
15899;SDS011;8048;50.644;6.184;2023-03-23T09:40:06;2.10;;;2.00;;
15899;SDS011;8048;50.644;6.184;2023-03-23T09:42:45;1.50;;;1.40;;
15899;SDS011;8048;50.644;6.184;2023-03-23T09:48:24;2.20;;;2.10;;
15899;SDS011;8048;50.644;6.184;2023-03-23T09:53:55;2.37;;;2.27;;
15899;SDS011;8048;50.644;6.184;2023-03-23T09:56:25;2.07;;;1.90;;
15899;SDS011;8048;50.644;6.184;2023-03-23T09:58:55;2.30;;;2.20;;
15899;SDS011;8048;50.644;6.184;2023-03-23T10:01:59;1.53;;;1.53;;
15899;SDS011;8048;50.644;6.184;2023-03-23T10:07:15;1.80;;;1.73;;
15899;SDS011;8048;50.644;6.184;2023-03-23T10:09:43;1.63;;;1.63;;
15899;SDS011;8048;50.644;6.184;2023-03-23T10:12:14;1.90;;;1.80;;
15899;SDS011;8048;50.644;6.184;2023-03-23T10:20:43;2.13;;;2.03;;
15899;SDS011;8048;50.644;6.184;2023-03-23T10:25:50;3.43;;;1.90;;
15899;SDS011;8048;50.644;6.184;2023-03-23T10:28:21;2.00;;;1.90;;
15899;SDS011;8048;50.644;6.184;2023-03-23T10:30:53;2.10;;;1.90;;
15899;SDS011;8048;50.644;6.184;2023-03-23T10:33:36;2.23;;;2.13;;
15899;SDS011;8048;50.644;6.184;2023-03-23T10:41:29;2.40;;;1.90;;
15899;SDS011;8048;50.644;6.184;2023-03-23T10:43:55;2.10;;;2.00;;
15899;SDS011;8048;50.644;6.184;2023-03-23T10:49:12;1.70;;;1.70;;
15899;SDS011;8048;50.644;6.184;2023-03-23T10:51:44;1.67;;;1.67;;
15899;SDS011;8048;50.644;6.184;2023-03-23T10:54:24;1.60;;;1.60;;
15899;SDS011;8048;50.644;6.184;2023-03-23T10:56:52;2.70;;;2.03;;
15899;SDS011;8048;50.644;6.184;2023-03-23T10:59:20;1.80;;;1.80;;
15899;SDS011;8048;50.644;6.184;2023-03-23T11:01:52;2.63;;;1.97;;
15899;SDS011;8048;50.644;6.184;2023-03-23T11:04:19;2.07;;;1.87;;
15899;SDS011;8048;50.644;6.184;2023-03-23T11:06:47;1.93;;;1.87;;
15899;SDS011;8048;50.644;6.184;2023-03-23T11:09:18;2.13;;;2.00;;
15899;SDS011;8048;50.644;6.184;2023-03-23T11:11:49;2.30;;;2.20;;
15899;SDS011;8048;50.644;6.184;2023-03-23T11:16:57;1.93;;;1.83;;
15899;SDS011;8048;50.644;6.184;2023-03-23T11:24:40;1.97;;;1.63;;
15899;SDS011;8048;50.644;6.184;2023-03-23T11:27:08;3.40;;;2.10;;
15899;SDS011;8048;50.644;6.184;2023-03-23T11:29:35;2.27;;;2.17;;
15899;SDS011;8048;50.644;6.184;2023-03-23T11:32:14;1.60;;;1.60;;
15899;SDS011;8048;50.644;6.184;2023-03-23T11:34:41;2.00;;;1.90;;
15899;SDS011;8048;50.644;6.184;2023-03-23T11:37:10;1.87;;;1.77;;
15899;SDS011;8048;50.644;6.184;2023-03-23T11:39:57;2.17;;;2.07;;
15899;SDS011;8048;50.644;6.184;2023-03-23T11:42:34;2.53;;;2.33;;
15899;SDS011;8048;50.644;6.184;2023-03-23T11:45:16;2.40;;;2.30;;
15899;SDS011;8048;50.644;6.184;2023-03-23T11:48:10;2.33;;;2.23;;
15899;SDS011;8048;50.644;6.184;2023-03-23T11:53:40;2.10;;;2.00;;
15899;SDS011;8048;50.644;6.184;2023-03-23T11:58:38;2.53;;;1.93;;
15899;SDS011;8048;50.644;6.184;2023-03-23T12:01:13;2.40;;;2.13;;
15899;SDS011;8048;50.644;6.184;2023-03-23T12:06:32;3.13;;;2.37;;
15899;SDS011;8048;50.644;6.184;2023-03-23T12:09:17;2.10;;;2.00;;
15899;SDS011;8048;50.644;6.184;2023-03-23T12:12:00;1.60;;;1.60;;
15899;SDS011;8048;50.644;6.184;2023-03-23T12:20:06;3.63;;;2.40;;
15899;SDS011;8048;50.644;6.184;2023-03-23T12:23:17;2.37;;;2.20;;
15899;SDS011;8048;50.644;6.184;2023-03-23T12:34:05;3.20;;;2.90;;
15899;SDS011;8048;50.644;6.184;2023-03-23T12:39:57;2.30;;;2.10;;
15899;SDS011;8048;50.644;6.184;2023-03-23T12:48:17;2.80;;;2.60;;
15899;SDS011;8048;50.644;6.184;2023-03-23T12:53:52;3.17;;;2.87;;
15899;SDS011;8048;50.644;6.184;2023-03-23T12:59:01;2.67;;;2.40;;
15899;SDS011;8048;50.644;6.184;2023-03-23T13:01:46;2.87;;;2.70;;
15899;SDS011;8048;50.644;6.184;2023-03-23T13:04:35;6.63;;;2.57;;
15899;SDS011;8048;50.644;6.184;2023-03-23T13:07:06;3.37;;;2.27;;
15899;SDS011;8048;50.644;6.184;2023-03-23T13:12:47;3.50;;;2.33;;
15899;SDS011;8048;50.644;6.184;2023-03-23T13:25:55;3.57;;;2.70;;
15899;SDS011;8048;50.644;6.184;2023-03-23T13:28:29;2.77;;;2.10;;
15899;SDS011;8048;50.644;6.184;2023-03-23T13:31:01;2.23;;;2.13;;
15899;SDS011;8048;50.644;6.184;2023-03-23T13:37:10;3.50;;;3.30;;
15899;SDS011;8048;50.644;6.184;2023-03-23T13:42:25;3.63;;;2.80;;
15899;SDS011;8048;50.644;6.184;2023-03-23T13:44:56;2.43;;;2.33;;
15899;SDS011;8048;50.644;6.184;2023-03-23T13:47:37;2.00;;;2.00;;
15899;SDS011;8048;50.644;6.184;2023-03-23T13:50:12;3.17;;;2.97;;
15899;SDS011;8048;50.644;6.184;2023-03-23T14:13:50;3.10;;;2.90;;
15899;SDS011;8048;50.644;6.184;2023-03-23T14:21:48;3.50;;;2.50;;
15899;SDS011;8048;50.644;6.184;2023-03-23T14:27:00;2.17;;;2.07;;
15899;SDS011;8048;50.644;6.184;2023-03-23T14:29:57;2.73;;;2.60;;
15899;SDS011;8048;50.644;6.184;2023-03-23T14:32:24;2.23;;;2.13;;
15899;SDS011;8048;50.644;6.184;2023-03-23T14:34:51;2.63;;;2.40;;
15899;SDS011;8048;50.644;6.184;2023-03-23T14:37:18;3.30;;;3.10;;
15899;SDS011;8048;50.644;6.184;2023-03-23T14:39:54;2.40;;;2.30;;
15899;SDS011;8048;50.644;6.184;2023-03-23T14:42:39;2.90;;;2.70;;
15899;SDS011;8048;50.644;6.184;2023-03-23T14:45:17;2.70;;;2.60;;
15899;SDS011;8048;50.644;6.184;2023-03-23T14:47:46;3.10;;;2.70;;
15899;SDS011;8048;50.644;6.184;2023-03-23T14:50:25;2.57;;;2.40;;
15899;SDS011;8048;50.644;6.184;2023-03-23T14:52:56;3.30;;;3.03;;
15899;SDS011;8048;50.644;6.184;2023-03-23T14:55:45;2.87;;;2.60;;
15899;SDS011;8048;50.644;6.184;2023-03-23T14:58:13;7.40;;;2.10;;
15899;SDS011;8048;50.644;6.184;2023-03-23T15:00:41;3.17;;;2.80;;
15899;SDS011;8048;50.644;6.184;2023-03-23T15:03:12;2.37;;;2.27;;
15899;SDS011;8048;50.644;6.184;2023-03-23T15:10:52;3.30;;;3.00;;
15899;SDS011;8048;50.644;6.184;2023-03-23T15:13:20;2.60;;;2.40;;
15899;SDS011;8048;50.644;6.184;2023-03-23T15:20:56;2.77;;;2.47;;
15899;SDS011;8048;50.644;6.184;2023-03-23T15:23:26;4.07;;;2.43;;
15899;SDS011;8048;50.644;6.184;2023-03-23T15:25:54;4.73;;;2.83;;
15899;SDS011;8048;50.644;6.184;2023-03-23T15:28:31;2.73;;;2.53;;
15899;SDS011;8048;50.644;6.184;2023-03-23T15:31:02;2.63;;;2.53;;
15899;SDS011;8048;50.644;6.184;2023-03-23T15:33:33;2.50;;;2.30;;
15899;SDS011;8048;50.644;6.184;2023-03-23T15:36:13;2.40;;;2.30;;
15899;SDS011;8048;50.644;6.184;2023-03-23T15:38:45;2.73;;;2.40;;
15899;SDS011;8048;50.644;6.184;2023-03-23T15:41:25;2.90;;;2.57;;
15899;SDS011;8048;50.644;6.184;2023-03-23T15:43:56;2.40;;;2.23;;
15899;SDS011;8048;50.644;6.184;2023-03-23T15:57:13;3.90;;;2.70;;
15899;SDS011;8048;50.644;6.184;2023-03-23T15:59:39;3.23;;;2.30;;
15899;SDS011;8048;50.644;6.184;2023-03-23T16:02:05;2.57;;;2.37;;
15899;SDS011;8048;50.644;6.184;2023-03-23T16:04:31;9.57;;;3.07;;
15899;SDS011;8048;50.644;6.184;2023-03-23T16:06:57;7.30;;;3.27;;
15899;SDS011;8048;50.644;6.184;2023-03-23T16:09:24;3.10;;;2.90;;
15899;SDS011;8048;50.644;6.184;2023-03-23T16:11:50;2.40;;;2.30;;
15899;SDS011;8048;50.644;6.184;2023-03-23T16:14:15;3.90;;;3.60;;
15899;SDS011;8048;50.644;6.184;2023-03-23T16:16:45;4.70;;;3.30;;
15899;SDS011;8048;50.644;6.184;2023-03-23T16:19:12;10.10;;;2.90;;
15899;SDS011;8048;50.644;6.184;2023-03-23T16:21:39;3.23;;;2.87;;
15899;SDS011;8048;50.644;6.184;2023-03-23T16:24:05;3.13;;;2.80;;
15899;SDS011;8048;50.644;6.184;2023-03-23T16:26:32;5.70;;;4.43;;
15899;SDS011;8048;50.644;6.184;2023-03-23T16:28:58;2.60;;;2.40;;
15899;SDS011;8048;50.644;6.184;2023-03-23T16:31:24;3.27;;;2.97;;
15899;SDS011;8048;50.644;6.184;2023-03-23T16:33:49;3.80;;;2.60;;
15899;SDS011;8048;50.644;6.184;2023-03-23T16:36:15;2.63;;;2.53;;
15899;SDS011;8048;50.644;6.184;2023-03-23T16:38:40;4.80;;;3.50;;
15899;SDS011;8048;50.644;6.184;2023-03-23T16:41:06;6.40;;;4.77;;
15899;SDS011;8048;50.644;6.184;2023-03-23T16:43:32;2.53;;;2.33;;
15899;SDS011;8048;50.644;6.184;2023-03-23T16:51:27;3.20;;;2.90;;
15899;SDS011;8048;50.644;6.184;2023-03-23T16:54:02;3.00;;;2.67;;
15899;SDS011;8048;50.644;6.184;2023-03-23T16:56:46;3.63;;;2.63;;
15899;SDS011;8048;50.644;6.184;2023-03-23T16:59:12;2.57;;;2.47;;
15899;SDS011;8048;50.644;6.184;2023-03-23T17:01:38;3.60;;;2.83;;
15899;SDS011;8048;50.644;6.184;2023-03-23T17:11:51;2.50;;;2.30;;
15899;SDS011;8048;50.644;6.184;2023-03-23T17:40:11;2.93;;;2.73;;
15899;SDS011;8048;50.644;6.184;2023-03-23T17:42:37;2.43;;;2.23;;
15899;SDS011;8048;50.644;6.184;2023-03-23T18:13:33;2.93;;;2.73;;
15899;SDS011;8048;50.644;6.184;2023-03-23T18:36:55;11.43;;;3.90;;
15899;SDS011;8048;50.644;6.184;2023-03-23T18:39:23;3.27;;;3.07;;
15899;SDS011;8048;50.644;6.184;2023-03-23T18:41:58;3.40;;;3.03;;
15899;SDS011;8048;50.644;6.184;2023-03-23T18:44:24;4.60;;;3.33;;
15899;SDS011;8048;50.644;6.184;2023-03-23T18:46:50;7.20;;;4.07;;
15899;SDS011;8048;50.644;6.184;2023-03-23T18:49:15;4.40;;;4.10;;
15899;SDS011;8048;50.644;6.184;2023-03-23T18:51:41;4.10;;;2.70;;
15899;SDS011;8048;50.644;6.184;2023-03-23T18:54:06;6.73;;;2.83;;
15899;SDS011;8048;50.644;6.184;2023-03-23T18:56:32;3.53;;;3.03;;
15899;SDS011;8048;50.644;6.184;2023-03-23T18:58:57;3.13;;;2.93;;
15899;SDS011;8048;50.644;6.184;2023-03-23T19:01:23;4.67;;;3.00;;
15899;SDS011;8048;50.644;6.184;2023-03-23T19:03:49;3.73;;;2.97;;
15899;SDS011;8048;50.644;6.184;2023-03-23T19:06:16;2.67;;;2.53;;
15899;SDS011;8048;50.644;6.184;2023-03-23T19:08:46;2.80;;;2.70;;
15899;SDS011;8048;50.644;6.184;2023-03-23T19:11:13;4.70;;;3.33;;
15899;SDS011;8048;50.644;6.184;2023-03-23T19:13:39;5.47;;;3.00;;
15899;SDS011;8048;50.644;6.184;2023-03-23T19:16:10;3.57;;;3.37;;
15899;SDS011;8048;50.644;6.184;2023-03-23T19:18:39;5.60;;;2.63;;
15899;SDS011;8048;50.644;6.184;2023-03-23T19:21:04;4.30;;;2.77;;